createdAt,value
2023-03-17T00:02:12.541Z,100263.21
2023-03-17T00:03:41.433Z,100274.51
2023-03-17T00:04:51.970Z,100273.59
2023-03-17T00:06:01.746Z,100272.73
2023-03-17T00:07:14.660Z,100274.48
2023-03-17T00:09:46.356Z,100271.45
2023-03-17T00:10:56.566Z,100272.55
2023-03-17T00:12:11.036Z,100270.59
2023-03-17T00:13:19.877Z,100272.33
2023-03-17T00:14:29.492Z,100268.64
2023-03-17T00:15:39.964Z,100271.17
2023-03-17T00:16:50.754Z,100271.00
2023-03-17T00:18:00.307Z,100278.91
2023-03-17T00:19:18.860Z,100278.84
2023-03-17T00:20:33.601Z,100273.00
2023-03-17T00:21:42.507Z,100276.48
2023-03-17T00:22:52.991Z,100280.06
2023-03-17T00:24:03.636Z,100279.08
2023-03-17T00:25:30.528Z,100279.08
2023-03-17T00:26:41.086Z,100284.60
2023-03-17T00:29:05.890Z,100268.28
2023-03-17T00:30:17.116Z,100275.78
2023-03-17T00:31:29.130Z,100282.06
2023-03-17T00:32:40.128Z,100282.89
2023-03-17T00:33:50.159Z,100289.06
2023-03-17T00:35:00.097Z,100283.63
2023-03-17T00:37:28.766Z,100289.91
2023-03-17T00:38:39.240Z,100299.62
2023-03-17T00:39:49.458Z,100283.87
2023-03-17T00:41:01.037Z,100289.65
2023-03-17T00:42:11.748Z,100289.41
2023-03-17T00:44:37.244Z,100285.95
2023-03-17T00:45:47.580Z,100290.30
2023-03-17T00:46:58.419Z,100285.28
2023-03-17T00:48:21.640Z,100285.70
2023-03-17T00:49:33.021Z,100289.91
2023-03-17T00:50:45.634Z,100295.20
2023-03-17T00:53:15.001Z,100294.52
2023-03-17T00:54:23.723Z,100295.61
2023-03-17T00:55:32.646Z,100295.75
2023-03-17T00:56:44.212Z,100305.37
2023-03-17T00:57:53.844Z,100287.81
2023-03-17T00:59:04.041Z,100291.44
2023-03-17T01:00:24.872Z,100289.44
2023-03-17T01:01:35.328Z,100291.79
2023-03-17T01:02:45.005Z,100294.09
2023-03-17T01:03:54.495Z,100297.47
2023-03-17T01:05:06.749Z,100296.16
2023-03-17T01:06:17.173Z,100289.98
2023-03-17T01:07:28.637Z,100288.78
2023-03-17T01:08:39.433Z,100293.90
2023-03-17T01:09:50.609Z,100296.21
2023-03-17T01:11:01.859Z,100297.09
2023-03-17T01:12:14.304Z,100291.08
2023-03-17T01:14:39.135Z,100285.05
2023-03-17T01:15:50.308Z,100285.47
2023-03-17T01:16:59.343Z,100296.86
2023-03-17T01:18:14.501Z,100293.60
2023-03-17T01:19:23.833Z,100302.28
2023-03-17T01:20:34.332Z,100299.41
2023-03-17T01:21:43.046Z,100303.60
2023-03-17T01:22:53.311Z,100302.17
2023-03-17T01:24:03.395Z,100303.74
2023-03-17T01:25:12.395Z,100304.22
2023-03-17T01:26:25.706Z,100301.03
2023-03-17T01:27:35.978Z,100298.27
2023-03-17T01:28:46.508Z,100300.59
2023-03-17T01:29:55.602Z,100304.38
2023-03-17T01:31:04.986Z,100302.39
2023-03-17T01:32:14.801Z,100309.33
2023-03-17T01:33:24.122Z,100307.36
2023-03-17T01:34:34.567Z,100303.91
2023-03-17T01:35:46.260Z,100304.59
2023-03-17T01:36:56.403Z,100310.98
2023-03-17T01:38:05.857Z,100311.87
2023-03-17T01:39:15.772Z,100305.48
2023-03-17T01:42:10.608Z,100303.30
2023-03-17T01:43:27.038Z,100308.86
2023-03-17T01:44:37.097Z,100299.74
2023-03-17T01:46:12.594Z,100302.17
2023-03-17T01:47:52.116Z,100304.05
2023-03-17T01:49:14.913Z,100311.09
2023-03-17T01:50:25.044Z,100303.91
2023-03-17T01:51:38.138Z,100312.39
2023-03-17T01:52:47.576Z,100310.95
2023-03-17T01:53:58.291Z,100309.19
2023-03-17T01:55:14.295Z,100308.23
2023-03-17T01:56:25.097Z,100313.47
2023-03-17T01:57:36.725Z,100314.51
2023-03-17T01:58:49.724Z,100317.78
2023-03-17T02:00:09.438Z,100318.39
2023-03-17T02:01:28.040Z,100325.66
2023-03-17T02:02:41.734Z,100317.84
2023-03-17T02:03:53.965Z,100316.68
2023-03-17T02:06:22.914Z,100315.68
2023-03-17T02:07:32.426Z,100327.23
2023-03-17T02:08:40.993Z,100320.48
2023-03-17T02:09:52.826Z,100325.50
2023-03-17T02:11:05.684Z,100326.46
2023-03-17T02:12:15.700Z,100333.67
2023-03-17T02:13:25.817Z,100328.55
2023-03-17T02:14:36.569Z,100329.97
2023-03-17T02:15:48.995Z,100333.40
2023-03-17T02:16:58.220Z,100335.33
2023-03-17T02:18:08.560Z,100341.92
2023-03-17T02:19:18.682Z,100343.95
2023-03-17T02:20:32.520Z,100338.20
2023-03-17T02:21:45.628Z,100340.23
2023-03-17T02:22:56.865Z,100353.05
2023-03-17T02:25:32.032Z,100343.80
2023-03-17T02:26:44.527Z,100353.50
2023-03-17T02:28:02.818Z,100354.30
2023-03-17T02:29:12.716Z,100364.81
2023-03-17T02:30:24.012Z,100360.95
2023-03-17T02:31:35.245Z,100368.72
2023-03-17T02:32:45.009Z,100361.50
2023-03-17T02:33:54.812Z,100358.40
2023-03-17T02:35:04.493Z,100368.22
2023-03-17T02:36:15.756Z,100366.30
2023-03-17T02:37:26.541Z,100364.67
2023-03-17T02:38:35.995Z,100354.78
2023-03-17T02:39:46.306Z,100360.31
2023-03-17T02:40:56.973Z,100364.43
2023-03-17T02:42:07.710Z,100375.80
2023-03-17T02:43:17.500Z,100367.80
2023-03-17T02:45:42.605Z,100362.93
2023-03-17T02:46:53.967Z,100373.86
2023-03-17T02:48:04.082Z,100369.37
2023-03-17T02:49:14.812Z,100372.34
2023-03-17T02:50:28.232Z,100372.39
2023-03-17T02:51:40.163Z,100371.06
2023-03-17T02:54:05.189Z,100372.69
2023-03-17T02:56:30.340Z,100379.69
2023-03-17T02:57:39.174Z,100375.34
2023-03-17T02:58:51.912Z,100385.85
2023-03-17T03:00:00.533Z,100377.75
2023-03-17T03:01:11.217Z,100380.41
2023-03-17T03:02:20.194Z,100379.69
2023-03-17T03:03:31.431Z,100388.43
2023-03-17T03:05:07.703Z,100382.28
2023-03-17T03:06:17.572Z,100378.45
2023-03-17T03:07:27.788Z,100382.51
2023-03-17T03:09:07.095Z,100393.02
2023-03-17T03:10:19.211Z,100387.43
2023-03-17T03:11:29.774Z,100384.03
2023-03-17T03:12:40.315Z,100387.59
2023-03-17T03:13:48.952Z,100388.34
2023-03-17T03:15:00.353Z,100376.82
2023-03-17T03:16:10.167Z,100389.95
2023-03-17T03:17:21.513Z,100386.73
2023-03-17T03:18:31.247Z,100390.30
2023-03-17T03:19:40.886Z,100393.65
2023-03-17T03:20:49.841Z,100378.00
2023-03-17T03:21:58.701Z,100385.23
2023-03-17T03:23:09.326Z,100386.76
2023-03-17T03:24:18.596Z,100382.47
2023-03-17T03:25:28.324Z,100389.09
2023-03-17T03:26:39.895Z,100393.86
2023-03-17T03:27:48.398Z,100389.39
2023-03-17T03:28:58.336Z,100394.43
2023-03-17T03:30:09.547Z,100384.66
2023-03-17T03:31:19.077Z,100394.65
2023-03-17T03:32:27.728Z,100391.59
2023-03-17T03:33:36.959Z,100401.93
2023-03-17T03:34:46.058Z,100390.56
2023-03-17T03:35:55.839Z,100404.70
2023-03-17T03:37:05.467Z,100395.67
2023-03-17T03:38:16.296Z,100400.92
2023-03-17T03:39:25.849Z,100395.56
2023-03-17T03:41:52.426Z,100392.50
2023-03-17T03:43:19.844Z,100405.27
2023-03-17T03:44:16.236Z,100403.41
2023-03-17T03:45:26.951Z,100399.80
2023-03-17T03:46:36.187Z,100404.30
2023-03-17T03:47:46.130Z,100407.98
2023-03-17T03:48:55.464Z,100407.64
2023-03-17T03:50:07.143Z,100412.05
2023-03-17T03:52:33.100Z,100412.61
2023-03-17T03:53:42.487Z,100418.13
2023-03-17T03:54:52.144Z,100417.41
2023-03-17T03:56:01.293Z,100427.80
2023-03-17T03:58:26.460Z,100421.38
2023-03-17T03:59:35.290Z,100428.38
2023-03-17T04:00:45.094Z,100417.52
2023-03-17T04:01:54.119Z,100430.79
2023-03-17T04:03:03.387Z,100420.12
2023-03-17T04:04:13.813Z,100422.61
2023-03-17T04:05:23.959Z,100426.55
2023-03-17T04:06:33.176Z,100426.83
2023-03-17T04:07:42.743Z,100421.86
2023-03-17T04:08:52.231Z,100436.72
2023-03-17T04:10:01.349Z,100423.58
2023-03-17T04:11:11.091Z,100428.14
2023-03-17T04:12:20.205Z,100431.75
2023-03-17T04:13:28.621Z,100431.86
2023-03-17T04:14:37.146Z,100432.66
2023-03-17T04:15:46.430Z,100436.27
2023-03-17T04:16:56.708Z,100439.72
2023-03-17T04:18:05.251Z,100443.95
2023-03-17T04:19:15.401Z,100442.14
2023-03-17T04:20:24.472Z,100444.45
2023-03-17T04:21:34.031Z,100456.77
2023-03-17T04:22:44.577Z,100447.00
2023-03-17T04:23:53.080Z,100446.05
2023-03-17T04:25:01.652Z,100440.89
2023-03-17T04:26:11.588Z,100447.91
2023-03-17T04:27:21.457Z,100455.08
2023-03-17T04:28:30.950Z,100454.22
2023-03-17T04:29:42.330Z,100449.98
2023-03-17T04:32:07.452Z,100453.48
2023-03-17T04:33:16.191Z,100459.02
2023-03-17T04:34:34.813Z,100458.06
2023-03-17T04:35:44.481Z,100464.28
2023-03-17T04:36:55.912Z,100461.30
2023-03-17T04:38:07.435Z,100464.67
2023-03-17T04:40:31.885Z,100453.95
2023-03-17T04:41:41.343Z,100462.20
2023-03-17T04:42:50.704Z,100464.17
2023-03-17T04:43:59.251Z,100465.70
2023-03-17T04:45:10.722Z,100477.31
2023-03-17T04:47:36.525Z,100471.73
2023-03-17T04:48:45.135Z,100474.45
2023-03-17T04:49:53.992Z,100476.20
2023-03-17T04:51:03.629Z,100474.33
2023-03-17T04:52:18.852Z,100481.98
2023-03-17T04:53:30.156Z,100479.77
2023-03-17T04:54:40.335Z,100475.52
2023-03-17T04:55:48.762Z,100485.31
2023-03-17T04:56:58.999Z,100481.98
2023-03-17T04:58:09.248Z,100492.65
2023-03-17T04:59:19.809Z,100491.63
2023-03-17T05:00:29.237Z,100494.94
2023-03-17T05:01:39.296Z,100500.98
2023-03-17T05:02:49.838Z,100491.06
2023-03-17T05:03:58.688Z,100491.59
2023-03-17T05:05:09.675Z,100492.23
2023-03-17T05:06:19.214Z,100487.55
2023-03-17T05:07:28.453Z,100495.36
2023-03-17T05:08:36.885Z,100490.81
2023-03-17T05:09:46.450Z,100494.78
2023-03-17T05:10:57.689Z,100492.30
2023-03-17T05:12:08.522Z,100495.31
2023-03-17T05:14:00.930Z,100503.75
2023-03-17T05:15:11.290Z,100496.58
2023-03-17T05:16:20.214Z,100498.19
2023-03-17T05:17:30.933Z,100493.39
2023-03-17T05:18:41.568Z,100496.83
2023-03-17T05:19:51.081Z,100500.95
2023-03-17T05:21:00.931Z,100496.61
2023-03-17T05:22:09.997Z,100493.55
2023-03-17T05:23:20.159Z,100501.52
2023-03-17T05:24:28.817Z,100500.61
2023-03-17T05:25:39.234Z,100503.20
2023-03-17T05:26:48.115Z,100506.55
2023-03-17T05:27:58.788Z,100512.75
2023-03-17T05:29:09.070Z,100520.89
2023-03-17T05:31:33.555Z,100511.86
2023-03-17T05:32:42.838Z,100515.63
2023-03-17T05:33:52.027Z,100512.45
2023-03-17T05:35:01.710Z,100515.79
2023-03-17T05:36:12.527Z,100512.61
2023-03-17T05:37:22.263Z,100514.52
2023-03-17T05:39:46.510Z,100510.66
2023-03-17T05:42:11.978Z,100508.53
2023-03-17T05:43:22.544Z,100522.80
2023-03-17T05:44:33.256Z,100520.21
2023-03-17T05:45:41.724Z,100522.69
2023-03-17T05:46:51.093Z,100518.81
2023-03-17T05:48:00.271Z,100528.42
2023-03-17T05:49:09.583Z,100524.45
2023-03-17T05:50:19.059Z,100528.80
2023-03-17T05:51:28.322Z,100525.19
2023-03-17T05:52:38.221Z,100533.09
2023-03-17T05:55:03.705Z,100524.97
2023-03-17T05:56:14.892Z,100534.35
2023-03-17T05:57:24.362Z,100527.95
2023-03-17T05:58:33.313Z,100537.73
2023-03-17T05:59:42.393Z,100534.22
2023-03-17T06:00:52.099Z,100536.88
2023-03-17T06:02:02.096Z,100534.27
2023-03-17T06:03:11.329Z,100538.03
2023-03-17T06:04:20.446Z,100540.64
2023-03-17T06:05:31.974Z,100539.78
2023-03-17T06:06:40.756Z,100537.94
2023-03-17T06:07:55.564Z,100541.42
2023-03-17T06:09:02.202Z,100538.72
2023-03-17T06:11:29.224Z,100538.34
2023-03-17T06:12:38.337Z,100538.41
2023-03-17T06:15:10.555Z,100538.98
2023-03-17T06:17:36.657Z,100537.61
2023-03-17T06:18:46.281Z,100542.13
2023-03-17T06:19:55.306Z,100546.58
2023-03-17T06:21:04.720Z,100546.38
2023-03-17T06:22:13.280Z,100553.05
2023-03-17T06:23:23.131Z,100544.08
2023-03-17T06:24:32.912Z,100555.70
2023-03-17T06:25:41.760Z,100554.55
2023-03-17T06:26:52.727Z,100548.33
2023-03-17T06:28:02.956Z,100550.98
2023-03-17T06:29:12.340Z,100547.64
2023-03-17T06:30:21.905Z,100546.69
2023-03-17T06:31:30.607Z,100555.35
2023-03-17T06:32:40.795Z,100556.36
2023-03-17T06:33:50.767Z,100556.41
2023-03-17T06:35:00.430Z,100556.23
2023-03-17T06:37:25.742Z,100558.80
2023-03-17T06:38:35.462Z,100561.92
2023-03-17T06:39:45.210Z,100561.23
2023-03-17T06:42:09.190Z,100556.14
2023-03-17T06:43:20.143Z,100560.81
2023-03-17T06:44:30.279Z,100565.16
2023-03-17T06:45:39.089Z,100559.59
2023-03-17T06:46:48.953Z,100568.55
2023-03-17T06:47:58.203Z,100564.58
2023-03-17T06:49:08.139Z,100568.20
2023-03-17T06:51:34.085Z,100561.36
2023-03-17T06:52:45.642Z,100576.56
2023-03-17T06:53:54.470Z,100567.05
2023-03-17T06:55:05.078Z,100563.56
2023-03-17T06:56:29.152Z,100576.80
2023-03-17T06:57:28.619Z,100577.68
2023-03-17T06:58:37.433Z,100567.73
2023-03-17T06:59:47.073Z,100569.55
2023-03-17T07:00:55.748Z,100573.00
2023-03-17T07:02:05.344Z,100576.04
2023-03-17T07:03:18.159Z,100578.48
2023-03-17T07:04:26.892Z,100571.80
2023-03-17T07:06:51.665Z,100564.30
2023-03-17T07:08:01.543Z,100569.14
2023-03-17T07:09:10.167Z,100573.33
2023-03-17T07:10:19.331Z,100581.09
2023-03-17T07:11:29.212Z,100579.55
2023-03-17T07:12:37.833Z,100577.75
2023-03-17T07:13:47.674Z,100583.06
2023-03-17T07:14:57.698Z,100579.55
2023-03-17T07:17:22.121Z,100582.63
2023-03-17T07:18:33.894Z,100588.20
2023-03-17T07:19:44.041Z,100584.69
2023-03-17T07:20:53.004Z,100582.99
2023-03-17T07:23:20.694Z,100577.13
2023-03-17T07:24:29.280Z,100588.05
2023-03-17T07:25:39.153Z,100589.95
2023-03-17T07:26:49.829Z,100590.65
2023-03-17T07:27:58.537Z,100593.41
2023-03-17T07:29:07.840Z,100583.59
2023-03-17T07:30:18.714Z,100588.00
2023-03-17T07:31:27.674Z,100592.14
2023-03-17T07:32:37.075Z,100592.25
2023-03-17T07:33:46.471Z,100591.23
2023-03-17T07:34:55.084Z,100604.89
2023-03-17T07:37:21.146Z,100598.34
2023-03-17T07:38:30.112Z,100599.84
2023-03-17T07:39:39.337Z,100600.73
2023-03-17T07:40:50.193Z,100599.19
2023-03-17T07:41:59.947Z,100599.58
2023-03-17T07:43:09.554Z,100605.52
2023-03-17T07:44:19.729Z,100602.02
2023-03-17T07:45:28.516Z,100597.34
2023-03-17T07:46:39.087Z,100601.38
2023-03-17T07:47:49.140Z,100601.20
2023-03-17T07:48:59.545Z,100608.86
2023-03-17T07:50:10.252Z,100612.01
2023-03-17T07:51:23.083Z,100604.66
2023-03-17T07:52:32.007Z,100612.34
2023-03-17T07:53:42.575Z,100610.70
2023-03-17T07:54:51.754Z,100615.69
2023-03-17T07:56:01.168Z,100612.24
2023-03-17T07:57:10.777Z,100617.47
2023-03-17T07:58:20.923Z,100610.98
2023-03-17T07:59:30.502Z,100608.86
2023-03-17T08:00:42.098Z,100611.28
2023-03-17T08:01:51.590Z,100605.80
2023-03-17T08:03:09.938Z,100617.16
2023-03-17T08:04:13.617Z,100619.55
2023-03-17T08:05:22.763Z,100622.27
2023-03-17T08:06:31.975Z,100623.05
2023-03-17T08:07:41.580Z,100622.94
2023-03-17T08:08:52.266Z,100610.42
2023-03-17T08:10:01.352Z,100610.37
2023-03-17T08:12:26.751Z,100618.75
2023-03-17T08:13:35.854Z,100625.24
2023-03-17T08:14:44.967Z,100619.71
2023-03-17T08:15:54.291Z,100627.52
2023-03-17T08:17:04.457Z,100627.95
2023-03-17T08:18:13.257Z,100631.64
2023-03-17T08:19:22.773Z,100631.58
2023-03-17T08:21:46.641Z,100633.05
2023-03-17T08:22:59.424Z,100631.41
2023-03-17T08:24:08.649Z,100628.86
2023-03-17T08:25:17.462Z,100625.94
2023-03-17T08:26:27.280Z,100628.59
2023-03-17T08:27:37.379Z,100632.38
2023-03-17T08:28:48.363Z,100635.94
2023-03-17T08:29:57.519Z,100624.22
2023-03-17T08:31:16.664Z,100635.53
2023-03-17T08:32:25.681Z,100630.11
2023-03-17T08:33:34.598Z,100636.87
2023-03-17T08:34:44.924Z,100628.20
2023-03-17T08:35:54.587Z,100629.33
2023-03-17T08:37:05.275Z,100633.73
2023-03-17T08:38:14.057Z,100635.64
2023-03-17T08:39:23.474Z,100640.73
2023-03-17T08:40:32.461Z,100641.64
2023-03-17T08:42:57.622Z,100629.04
2023-03-17T08:44:08.172Z,100638.87
2023-03-17T08:45:18.483Z,100641.42
2023-03-17T08:46:30.859Z,100638.03
2023-03-17T08:47:39.953Z,100642.86
2023-03-17T08:48:51.076Z,100644.34
2023-03-17T08:50:01.550Z,100636.43
2023-03-17T08:51:11.178Z,100647.48
2023-03-17T08:52:21.116Z,100641.91
2023-03-17T08:53:30.122Z,100637.55
2023-03-17T08:54:39.854Z,100640.78
2023-03-17T08:55:48.630Z,100639.14
2023-03-17T08:56:59.581Z,100653.77
2023-03-17T08:58:10.303Z,100643.75
2023-03-17T08:59:19.162Z,100644.88
2023-03-17T09:00:29.155Z,100638.41
2023-03-17T09:01:40.094Z,100636.54
2023-03-17T09:02:48.849Z,100641.54
2023-03-17T09:03:57.972Z,100636.06
2023-03-17T09:05:07.699Z,100643.70
2023-03-17T09:06:17.475Z,100639.77
2023-03-17T09:07:26.247Z,100642.09
2023-03-17T09:08:37.788Z,100634.28
2023-03-17T09:09:47.381Z,100638.60
2023-03-17T09:10:56.460Z,100647.01
2023-03-17T09:12:06.408Z,100641.11
2023-03-17T09:13:15.795Z,100638.92
2023-03-17T09:14:25.147Z,100639.39
2023-03-17T09:15:33.961Z,100649.91
2023-03-17T09:16:42.868Z,100640.97
2023-03-17T09:17:52.611Z,100645.54
2023-03-17T09:19:01.739Z,100643.53
2023-03-17T09:20:12.083Z,100650.48
2023-03-17T09:22:36.912Z,100648.34
2023-03-17T09:23:47.472Z,100650.48
2023-03-17T09:24:56.366Z,100658.33
2023-03-17T09:26:06.752Z,100660.98
2023-03-17T09:27:15.866Z,100657.69
2023-03-17T09:28:25.558Z,100657.41
2023-03-17T09:29:35.031Z,100655.44
2023-03-17T09:31:59.212Z,100660.66
2023-03-17T09:33:13.195Z,100655.45
2023-03-17T09:35:39.748Z,100655.44
2023-03-17T09:36:49.534Z,100663.70
2023-03-17T09:37:58.514Z,100665.62
2023-03-17T09:39:09.438Z,100657.38
2023-03-17T09:40:22.828Z,100666.09
2023-03-17T09:41:53.232Z,100664.10
2023-03-17T09:43:11.496Z,100669.02
2023-03-17T09:45:55.538Z,100667.05
2023-03-17T09:47:20.181Z,100673.26
2023-03-17T09:48:36.702Z,100674.89
2023-03-17T09:49:49.068Z,100674.37
2023-03-17T09:51:08.379Z,100680.84
2023-03-17T09:55:00.965Z,100674.06
2023-03-17T09:56:13.678Z,100671.56
2023-03-17T09:57:32.010Z,100673.28
2023-03-17T09:58:44.681Z,100677.95
2023-03-17T10:01:20.111Z,100669.77
2023-03-17T10:03:50.337Z,100675.30
2023-03-17T10:05:14.765Z,100675.70
2023-03-17T10:08:26.921Z,100681.23
2023-03-17T10:09:39.709Z,100679.95
2023-03-17T10:11:11.587Z,100680.63
2023-03-17T10:12:51.930Z,100682.66
2023-03-17T10:14:08.539Z,100678.88
2023-03-17T10:15:23.496Z,100679.78
2023-03-17T10:16:49.067Z,100681.13
2023-03-17T10:19:39.350Z,100692.67
2023-03-17T10:22:35.807Z,100685.70
2023-03-17T10:25:20.377Z,100678.92
2023-03-17T10:28:20.197Z,100680.56
2023-03-17T10:29:35.715Z,100682.89
2023-03-17T10:30:44.471Z,100683.57
2023-03-17T10:31:58.437Z,100689.38
2023-03-17T10:33:08.131Z,100676.70
2023-03-17T10:34:32.289Z,100686.28
2023-03-17T10:35:44.308Z,100683.63
2023-03-17T10:38:21.480Z,100672.42
2023-03-17T10:40:59.149Z,100678.00
2023-03-17T10:42:12.285Z,100681.91
2023-03-17T10:43:22.134Z,100689.22
2023-03-17T10:44:48.252Z,100692.48
2023-03-17T10:46:06.987Z,100696.73
2023-03-17T10:47:37.872Z,100688.14
2023-03-17T10:50:21.585Z,100684.84
2023-03-17T10:52:57.333Z,100692.33
2023-03-17T10:54:11.692Z,100696.06
2023-03-17T10:56:41.894Z,100701.55
2023-03-17T10:57:54.712Z,100705.34
2023-03-17T11:00:30.138Z,100693.58
2023-03-17T11:01:42.209Z,100697.02
2023-03-17T11:02:57.734Z,100701.11
2023-03-17T11:05:40.014Z,100702.34
2023-03-17T11:06:51.370Z,100708.78
2023-03-17T11:08:17.286Z,100705.59
2023-03-17T11:09:30.695Z,100708.00
2023-03-17T11:10:41.970Z,100699.45
2023-03-17T11:12:01.003Z,100703.59
2023-03-17T11:13:11.814Z,100700.45
2023-03-17T11:15:48.179Z,100700.80
2023-03-17T11:17:01.101Z,100704.53
2023-03-17T11:20:12.823Z,100710.89
2023-03-17T11:21:34.768Z,100707.66
2023-03-17T11:24:09.900Z,100707.27
2023-03-17T11:25:22.433Z,100709.46
2023-03-17T11:26:50.040Z,100710.50
2023-03-17T11:28:21.494Z,100712.45
2023-03-17T11:29:57.918Z,100715.39
2023-03-17T11:32:50.715Z,100715.11
2023-03-17T11:35:53.700Z,100710.09
2023-03-17T11:37:33.826Z,100717.45
2023-03-17T11:39:01.021Z,100716.37
2023-03-17T11:41:36.365Z,100705.67
2023-03-17T11:43:23.779Z,100712.14
2023-03-17T11:44:53.917Z,100722.59
2023-03-17T11:48:08.811Z,100712.14
2023-03-17T11:49:23.679Z,100719.52
2023-03-17T11:50:42.673Z,100717.17
2023-03-17T11:52:11.753Z,100719.83
2023-03-17T11:53:27.071Z,100722.75
2023-03-17T11:54:45.347Z,100729.03
2023-03-17T11:56:13.347Z,100724.84
2023-03-17T11:57:43.678Z,100731.77
2023-03-17T12:00:23.383Z,100718.34
2023-03-17T12:03:25.187Z,100723.11
2023-03-17T12:04:41.597Z,100727.75
2023-03-17T12:05:55.036Z,100732.63
2023-03-17T12:07:16.705Z,100728.95
2023-03-17T12:10:11.259Z,100734.13
2023-03-17T12:11:28.567Z,100727.00
2023-03-17T12:12:48.023Z,100736.70
2023-03-17T12:14:04.351Z,100729.22
2023-03-17T12:15:37.144Z,100743.27
2023-03-17T12:19:59.129Z,100734.48
2023-03-17T12:21:44.004Z,100737.14
2023-03-17T12:23:00.425Z,100740.37
2023-03-17T12:24:19.772Z,100740.15
2023-03-17T12:27:09.687Z,100744.09
2023-03-17T12:28:27.142Z,100755.98
2023-03-17T12:29:52.350Z,100740.19
2023-03-17T12:31:08.408Z,100750.22
2023-03-17T12:33:52.125Z,100755.20
2023-03-17T12:35:06.759Z,100759.09
2023-03-17T12:36:17.975Z,100757.30
2023-03-17T12:37:29.715Z,100752.48
2023-03-17T12:38:54.186Z,100761.30
2023-03-17T12:40:08.458Z,100758.48
2023-03-17T12:41:29.662Z,100757.30
2023-03-17T12:44:30.049Z,100763.39
2023-03-17T12:46:00.981Z,100769.47
2023-03-17T12:47:41.386Z,100765.03
2023-03-17T12:48:57.323Z,100770.14
2023-03-17T12:52:06.771Z,100770.53
2023-03-17T12:53:33.167Z,100774.05
2023-03-17T12:54:46.244Z,100773.30
2023-03-17T12:57:22.655Z,100778.91
2023-03-17T13:00:05.566Z,100780.35
2023-03-17T13:03:14.006Z,100785.08
2023-03-17T13:04:32.647Z,100782.94
2023-03-17T13:07:13.750Z,100776.84
2023-03-17T13:08:28.738Z,100790.27
2023-03-17T13:09:59.712Z,100789.66
2023-03-17T13:11:26.779Z,100787.20
2023-03-17T13:12:45.804Z,100784.91
2023-03-17T13:13:59.122Z,100780.70
2023-03-17T13:16:47.435Z,100779.87
2023-03-17T13:19:34.493Z,100792.20
2023-03-17T13:21:02.270Z,100786.30
2023-03-17T13:22:14.628Z,100797.31
2023-03-17T13:23:39.177Z,100787.30
2023-03-17T13:24:52.286Z,100788.01
2023-03-17T13:26:02.842Z,100791.95
2023-03-17T13:28:40.681Z,100785.59
2023-03-17T13:29:49.991Z,100780.83
2023-03-17T13:31:31.298Z,100787.22
2023-03-17T13:32:40.819Z,100784.75
2023-03-17T13:34:00.053Z,100786.91
2023-03-17T13:35:17.261Z,100793.13
2023-03-17T13:36:36.397Z,100788.42
2023-03-17T13:37:55.338Z,100787.96
2023-03-17T13:39:19.292Z,100787.45
2023-03-17T13:40:27.462Z,100788.88
2023-03-17T13:43:02.481Z,100782.19
2023-03-17T13:44:32.525Z,100799.30
2023-03-17T13:45:44.474Z,100794.11
2023-03-17T13:46:54.758Z,100790.91
2023-03-17T13:49:50.416Z,100784.52
2023-03-17T13:52:45.114Z,100797.14
2023-03-17T13:53:59.003Z,100798.09
2023-03-17T13:55:21.232Z,100800.81
2023-03-17T13:58:13.317Z,100796.38
2023-03-17T14:00:50.839Z,100795.10
2023-03-17T14:02:04.075Z,100795.27
2023-03-17T14:03:20.306Z,100793.92
2023-03-17T14:05:51.433Z,100802.69
2023-03-17T14:08:38.124Z,100803.55
2023-03-17T14:09:49.707Z,100809.70
2023-03-17T14:11:01.240Z,100804.49
2023-03-17T14:12:34.691Z,100812.23
2023-03-17T14:15:08.708Z,100809.31
2023-03-17T14:17:50.290Z,100806.53
2023-03-17T14:20:23.136Z,100812.31
2023-03-17T14:21:33.635Z,100810.67
2023-03-17T14:22:46.004Z,100802.74
2023-03-17T14:24:00.816Z,100812.31
2023-03-17T14:25:23.359Z,100814.64
2023-03-17T14:26:32.992Z,100816.29
2023-03-17T14:27:44.520Z,100808.11
2023-03-17T14:28:53.325Z,100814.80
2023-03-17T14:31:29.288Z,100813.50
2023-03-17T14:32:38.812Z,100815.54
2023-03-17T14:33:47.844Z,100810.48
2023-03-17T14:34:59.728Z,100819.63
2023-03-17T14:36:14.607Z,100820.23
2023-03-17T14:37:24.917Z,100817.66
2023-03-17T14:38:37.272Z,100823.59
2023-03-17T14:41:16.497Z,100826.48
2023-03-17T14:42:32.708Z,100824.13
2023-03-17T14:43:43.033Z,100834.05
2023-03-17T14:45:01.479Z,100830.11
2023-03-17T14:47:43.516Z,100827.20
2023-03-17T14:49:01.407Z,100832.05
2023-03-17T14:50:27.613Z,100825.93
2023-03-17T14:51:39.962Z,100825.04
2023-03-17T14:52:51.880Z,100829.78
2023-03-17T14:55:19.482Z,100833.97
2023-03-17T14:57:53.931Z,100829.47
2023-03-17T14:59:18.559Z,100832.53
2023-03-17T15:01:56.144Z,100826.80
2023-03-17T15:03:18.073Z,100837.05
2023-03-17T15:04:30.012Z,100835.98
2023-03-17T15:05:46.652Z,100840.35
2023-03-17T15:07:01.271Z,100844.92
2023-03-17T15:08:36.239Z,100848.73
2023-03-17T15:09:44.695Z,100846.23
2023-03-17T15:10:57.679Z,100848.70
2023-03-17T15:13:38.001Z,100844.14
2023-03-17T15:14:54.884Z,100842.66
2023-03-17T15:17:36.737Z,100839.66
2023-03-17T15:18:47.174Z,100841.53
2023-03-17T15:19:59.011Z,100846.75
2023-03-17T15:23:01.614Z,100839.44
2023-03-17T15:24:35.704Z,100849.41
2023-03-17T15:25:49.101Z,100850.09
2023-03-17T15:27:02.361Z,100841.94
2023-03-17T15:28:18.024Z,100848.50
2023-03-17T15:29:28.844Z,100844.81
2023-03-17T15:30:47.646Z,100840.17
2023-03-17T15:31:53.720Z,100846.45
2023-03-17T15:33:04.031Z,100847.24
2023-03-17T15:34:14.827Z,100851.84
2023-03-17T15:35:24.208Z,100850.14
2023-03-17T15:36:33.914Z,100844.87
2023-03-17T15:37:53.319Z,100847.42
2023-03-17T15:39:02.980Z,100848.34
2023-03-17T15:41:29.328Z,100852.52
2023-03-17T15:43:54.783Z,100847.13
2023-03-17T15:45:07.025Z,100858.13
2023-03-17T15:46:27.859Z,100862.77
2023-03-17T15:47:40.340Z,100859.42
2023-03-17T15:48:49.741Z,100858.46
2023-03-17T15:51:26.640Z,100861.30
2023-03-17T15:52:35.367Z,100866.91
2023-03-17T15:53:44.376Z,100874.14
2023-03-17T15:54:55.303Z,100875.00
2023-03-17T15:56:03.876Z,100877.61
2023-03-17T15:58:29.726Z,100879.94
2023-03-17T15:59:38.662Z,100882.08
2023-03-17T16:02:34.878Z,100882.13
2023-03-17T16:03:47.672Z,100891.08
2023-03-17T16:04:57.331Z,100891.86
2023-03-17T16:07:26.760Z,100891.31
2023-03-17T16:08:36.739Z,100889.91
2023-03-17T16:11:01.536Z,100888.89
2023-03-17T16:12:14.796Z,100893.73
2023-03-17T16:13:24.228Z,100890.92
2023-03-17T16:14:33.065Z,100891.86
2023-03-17T16:15:45.862Z,100897.94
2023-03-17T16:16:55.493Z,100895.17
2023-03-17T16:19:24.261Z,100893.98
2023-03-17T16:22:00.652Z,100902.14